sensor_id;sensor_type;location;lat;lon;timestamp;pressure;altitude;pressure_sealevel;temperature;humidity
11053;BME280;55230;42.602;23.470;2022-12-07T00:00:45;93498.19;;;4.63;100.00
11053;BME280;55230;42.602;23.470;2022-12-07T00:03:11;93498.00;;;4.50;100.00
11053;BME280;55230;42.602;23.470;2022-12-07T00:05:39;93304.19;;;3.28;100.00
11053;BME280;55230;42.602;23.470;2022-12-07T00:08:06;93422.16;;;4.05;100.00
11053;BME280;55230;42.602;23.470;2022-12-07T00:10:33;93514.91;;;4.44;100.00
11053;BME280;55230;42.602;23.470;2022-12-07T00:13:00;93462.88;;;4.32;100.00
11053;BME280;55230;42.602;23.470;2022-12-07T00:15:27;93508.91;;;4.59;100.00
11053;BME280;55230;42.602;23.470;2022-12-07T00:17:53;93501.66;;;4.60;100.00
11053;BME280;55230;42.602;23.470;2022-12-07T00:20:20;93502.84;;;4.59;100.00
11053;BME280;55230;42.602;23.470;2022-12-07T00:22:48;93356.34;;;3.29;100.00
11053;BME280;55230;42.602;23.470;2022-12-07T00:25:15;93451.03;;;4.33;100.00
11053;BME280;55230;42.602;23.470;2022-12-07T00:27:42;93509.56;;;4.67;100.00
11053;BME280;55230;42.602;23.470;2022-12-07T00:30:09;93422.50;;;3.84;100.00
11053;BME280;55230;42.602;23.470;2022-12-07T00:32:36;93446.09;;;4.32;100.00
11053;BME280;55230;42.602;23.470;2022-12-07T00:35:03;93489.81;;;4.61;100.00
11053;BME280;55230;42.602;23.470;2022-12-07T00:37:30;93486.06;;;4.58;100.00
11053;BME280;55230;42.602;23.470;2022-12-07T00:39:58;93483.75;;;4.60;100.00
11053;BME280;55230;42.602;23.470;2022-12-07T00:42:25;93425.34;;;3.97;100.00
11053;BME280;55230;42.602;23.470;2022-12-07T00:44:52;93498.59;;;4.38;100.00
11053;BME280;55230;42.602;23.470;2022-12-07T00:47:18;93425.97;;;4.04;100.00
11053;BME280;55230;42.602;23.470;2022-12-07T00:49:45;93517.28;;;4.38;100.00
11053;BME280;55230;42.602;23.470;2022-12-07T00:52:12;93482.75;;;4.05;100.00
11053;BME280;55230;42.602;23.470;2022-12-07T00:54:39;93485.53;;;3.98;100.00
11053;BME280;55230;42.602;23.470;2022-12-07T00:57:07;93518.78;;;3.93;100.00
11053;BME280;55230;42.602;23.470;2022-12-07T00:59:34;93438.78;;;3.67;100.00
11053;BME280;55230;42.602;23.470;2022-12-07T01:02:01;93480.44;;;4.07;100.00
11053;BME280;55230;42.602;23.470;2022-12-07T01:04:28;93461.88;;;4.00;100.00
11053;BME280;55230;42.602;23.470;2022-12-07T01:06:54;93472.38;;;4.10;100.00
11053;BME280;55230;42.602;23.470;2022-12-07T01:09:21;93419.03;;;3.87;100.00
11053;BME280;55230;42.602;23.470;2022-12-07T01:11:48;93384.06;;;3.59;100.00
11053;BME280;55230;42.602;23.470;2022-12-07T01:14:16;93483.69;;;4.18;100.00
11053;BME280;55230;42.602;23.470;2022-12-07T01:16:43;93481.38;;;4.20;100.00
11053;BME280;55230;42.602;23.470;2022-12-07T01:19:10;93438.50;;;4.07;100.00
11053;BME280;55230;42.602;23.470;2022-12-07T01:21:38;93333.41;;;3.35;100.00
11053;BME280;55230;42.602;23.470;2022-12-07T01:24:06;93473.53;;;4.32;100.00
11053;BME280;55230;42.602;23.470;2022-12-07T01:26:34;93469.63;;;4.37;100.00
11053;BME280;55230;42.602;23.470;2022-12-07T01:29:00;93460.97;;;4.10;100.00
11053;BME280;55230;42.602;23.470;2022-12-07T01:31:29;93370.75;;;3.32;100.00
11053;BME280;55230;42.602;23.470;2022-12-07T01:33:57;93436.81;;;3.94;100.00
11053;BME280;55230;42.602;23.470;2022-12-07T01:36:26;93417.75;;;3.95;100.00
11053;BME280;55230;42.602;23.470;2022-12-07T01:38:55;93464.38;;;4.33;100.00
11053;BME280;55230;42.602;23.470;2022-12-07T01:41:24;93463.22;;;4.34;100.00
11053;BME280;55230;42.602;23.470;2022-12-07T01:44:12;93387.06;;;3.84;100.00
11053;BME280;55230;42.602;23.470;2022-12-07T01:46:42;93383.31;;;3.81;100.00
11053;BME280;55230;42.602;23.470;2022-12-07T01:49:14;93480.13;;;4.28;100.00
11053;BME280;55230;42.602;23.470;2022-12-07T01:51:43;93461.44;;;4.28;100.00
11053;BME280;55230;42.602;23.470;2022-12-07T01:54:12;93404.69;;;4.01;100.00
11053;BME280;55230;42.602;23.470;2022-12-07T01:56:43;93430.91;;;4.06;100.00
11053;BME280;55230;42.602;23.470;2022-12-07T01:59:13;93448.88;;;4.25;100.00
11053;BME280;55230;42.602;23.470;2022-12-07T02:01:42;93451.66;;;4.18;100.00
11053;BME280;55230;42.602;23.470;2022-12-07T02:04:10;93450.34;;;4.29;100.00
11053;BME280;55230;42.602;23.470;2022-12-07T02:06:38;93446.44;;;4.34;100.00
11053;BME280;55230;42.602;23.470;2022-12-07T02:09:05;93387.97;;;4.00;100.00
11053;BME280;55230;42.602;23.470;2022-12-07T02:11:32;93033.75;;;1.36;100.00
11053;BME280;55230;42.602;23.470;2022-12-07T02:13:59;93441.34;;;4.43;100.00
11053;BME280;55230;42.602;23.470;2022-12-07T02:16:32;93441.38;;;4.39;100.00
11053;BME280;55230;42.602;23.470;2022-12-07T02:19:44;93445.16;;;4.42;100.00
11053;BME280;55230;42.602;23.470;2022-12-07T02:22:33;93421.72;;;4.30;100.00
11053;BME280;55230;42.602;23.470;2022-12-07T02:25:11;93437.78;;;4.49;100.00
11053;BME280;55230;42.602;23.470;2022-12-07T02:27:46;93437.44;;;4.47;100.00
11053;BME280;55230;42.602;23.470;2022-12-07T02:30:17;93438.56;;;4.27;100.00
11053;BME280;55230;42.602;23.470;2022-12-07T02:32:51;93389.84;;;3.77;100.00
11053;BME280;55230;42.602;23.470;2022-12-07T02:35:25;93434.41;;;4.26;100.00
11053;BME280;55230;42.602;23.470;2022-12-07T02:38:01;93440.75;;;4.32;100.00
11053;BME280;55230;42.602;23.470;2022-12-07T02:40:31;93435.75;;;4.34;100.00
11053;BME280;55230;42.602;23.470;2022-12-07T02:43:03;93433.78;;;4.38;100.00
11053;BME280;55230;42.602;23.470;2022-12-07T02:45:34;93368.16;;;3.98;100.00
11053;BME280;55230;42.602;23.470;2022-12-07T02:48:04;93296.69;;;3.46;100.00
11053;BME280;55230;42.602;23.470;2022-12-07T02:50:31;93241.19;;;3.18;100.00
11053;BME280;55230;42.602;23.470;2022-12-07T02:52:58;93336.06;;;3.82;100.00
11053;BME280;55230;42.602;23.470;2022-12-07T02:55:28;93425.78;;;4.38;100.00
11053;BME280;55230;42.602;23.470;2022-12-07T02:58:09;93425.69;;;4.22;100.00
11053;BME280;55230;42.602;23.470;2022-12-07T03:00:47;93435.91;;;4.04;100.00
11053;BME280;55230;42.602;23.470;2022-12-07T03:03:17;93373.97;;;3.70;100.00
11053;BME280;55230;42.602;23.470;2022-12-07T03:05:55;93386.47;;;3.49;100.00
11053;BME280;55230;42.602;23.470;2022-12-07T03:08:30;93422.84;;;4.09;100.00
11053;BME280;55230;42.602;23.470;2022-12-07T03:11:03;93417.75;;;4.18;100.00
11053;BME280;55230;42.602;23.470;2022-12-07T03:13:35;93369.22;;;3.81;100.00
11053;BME280;55230;42.602;23.470;2022-12-07T03:16:10;93410.63;;;4.12;100.00
11053;BME280;55230;42.602;23.470;2022-12-07T03:18:42;93410.78;;;4.01;100.00
11053;BME280;55230;42.602;23.470;2022-12-07T03:21:14;93420.13;;;3.90;100.00
11053;BME280;55230;42.602;23.470;2022-12-07T03:23:44;93417.69;;;3.99;100.00
11053;BME280;55230;42.602;23.470;2022-12-07T03:26:13;93416.13;;;4.01;100.00
11053;BME280;55230;42.602;23.470;2022-12-07T03:28:45;93411.56;;;4.02;100.00
11053;BME280;55230;42.602;23.470;2022-12-07T03:31:18;93405.88;;;4.00;100.00
11053;BME280;55230;42.602;23.470;2022-12-07T03:33:54;93241.94;;;2.96;100.00
11053;BME280;55230;42.602;23.470;2022-12-07T03:36:28;93404.03;;;3.97;100.00
11053;BME280;55230;42.602;23.470;2022-12-07T03:39:01;93427.56;;;4.02;100.00
11053;BME280;55230;42.602;23.470;2022-12-07T03:41:31;93401.56;;;4.06;100.00
11053;BME280;55230;42.602;23.470;2022-12-07T03:44:00;92908.31;;;0.41;100.00
11053;BME280;55230;42.602;23.470;2022-12-07T03:46:35;93400.06;;;4.05;100.00
11053;BME280;55230;42.602;23.470;2022-12-07T03:49:08;93374.91;;;3.83;100.00
11053;BME280;55230;42.602;23.470;2022-12-07T03:51:40;93408.06;;;3.82;100.00
11053;BME280;55230;42.602;23.470;2022-12-07T03:54:11;93374.69;;;3.24;100.00
11053;BME280;55230;42.602;23.470;2022-12-07T03:56:40;93307.00;;;2.95;100.00
11053;BME280;55230;42.602;23.470;2022-12-07T03:59:09;93408.63;;;3.70;100.00
11053;BME280;55230;42.602;23.470;2022-12-07T04:01:37;93264.75;;;2.70;100.00
11053;BME280;55230;42.602;23.470;2022-12-07T04:04:04;93410.22;;;3.67;100.00
11053;BME280;55230;42.602;23.470;2022-12-07T04:06:31;93415.84;;;3.73;100.00
11053;BME280;55230;42.602;23.470;2022-12-07T04:08:58;93030.34;;;0.71;100.00
11053;BME280;55230;42.602;23.470;2022-12-07T04:11:24;93130.88;;;1.97;100.00
11053;BME280;55230;42.602;23.470;2022-12-07T04:13:51;93399.03;;;3.76;100.00
11053;BME280;55230;42.602;23.470;2022-12-07T04:16:35;93403.59;;;3.75;100.00
11053;BME280;55230;42.602;23.470;2022-12-07T04:19:03;93408.16;;;3.75;100.00
11053;BME280;55230;42.602;23.470;2022-12-07T04:21:30;93312.25;;;2.72;100.00
11053;BME280;55230;42.602;23.470;2022-12-07T04:23:57;93318.06;;;2.93;100.00
11053;BME280;55230;42.602;23.470;2022-12-07T04:26:23;93397.91;;;3.50;100.00
11053;BME280;55230;42.602;23.470;2022-12-07T04:28:50;93409.66;;;3.52;100.00
11053;BME280;55230;42.602;23.470;2022-12-07T04:31:17;93405.53;;;3.48;100.00
11053;BME280;55230;42.602;23.470;2022-12-07T04:33:44;93404.53;;;3.38;100.00
11053;BME280;55230;42.602;23.470;2022-12-07T04:36:12;93230.03;;;2.24;100.00
11053;BME280;55230;42.602;23.470;2022-12-07T04:38:39;93363.31;;;3.20;100.00
11053;BME280;55230;42.602;23.470;2022-12-07T04:41:06;93318.59;;;2.81;100.00
11053;BME280;55230;42.602;23.470;2022-12-07T04:43:34;93367.66;;;3.10;100.00
11053;BME280;55230;42.602;23.470;2022-12-07T04:46:01;93030.53;;;0.91;100.00
11053;BME280;55230;42.602;23.470;2022-12-07T04:48:28;92950.09;;;0.30;100.00
11053;BME280;55230;42.602;23.470;2022-12-07T04:50:55;93403.28;;;3.46;100.00
11053;BME280;55230;42.602;23.470;2022-12-07T04:53:23;93411.75;;;3.41;100.00
11053;BME280;55230;42.602;23.470;2022-12-07T04:55:50;93237.00;;;2.14;100.00
11053;BME280;55230;42.602;23.470;2022-12-07T04:58:17;93416.84;;;3.55;100.00
11053;BME280;55230;42.602;23.470;2022-12-07T05:00:43;93365.56;;;3.21;100.00
11053;BME280;55230;42.602;23.470;2022-12-07T05:03:10;93413.03;;;3.57;100.00
11053;BME280;55230;42.602;23.470;2022-12-07T05:05:40;93417.56;;;3.60;100.00
11053;BME280;55230;42.602;23.470;2022-12-07T05:08:07;93413.09;;;3.53;100.00
11053;BME280;55230;42.602;23.470;2022-12-07T05:10:35;93303.47;;;2.48;100.00
11053;BME280;55230;42.602;23.470;2022-12-07T05:13:01;93415.75;;;3.26;100.00
11053;BME280;55230;42.602;23.470;2022-12-07T05:15:28;93422.16;;;3.32;100.00
11053;BME280;55230;42.602;23.470;2022-12-07T05:17:55;93418.63;;;3.39;100.00
11053;BME280;55230;42.602;23.470;2022-12-07T05:20:22;93262.47;;;2.42;100.00
11053;BME280;55230;42.602;23.470;2022-12-07T05:22:48;93269.66;;;2.45;100.00
11053;BME280;55230;42.602;23.470;2022-12-07T05:25:15;93288.16;;;2.25;100.00
11053;BME280;55230;42.602;23.470;2022-12-07T05:27:43;93339.66;;;2.72;100.00
11053;BME280;55230;42.602;23.470;2022-12-07T05:30:11;93404.31;;;3.29;100.00
11053;BME280;55230;42.602;23.470;2022-12-07T05:32:38;93404.25;;;3.33;100.00
11053;BME280;55230;42.602;23.470;2022-12-07T05:35:05;93404.19;;;3.36;100.00
11053;BME280;55230;42.602;23.470;2022-12-07T05:37:32;93432.00;;;3.35;100.00
11053;BME280;55230;42.602;23.470;2022-12-07T05:39:59;93411.44;;;3.36;100.00
11053;BME280;55230;42.602;23.470;2022-12-07T05:42:25;93416.09;;;3.28;100.00
11053;BME280;55230;42.602;23.470;2022-12-07T05:44:53;93236.50;;;1.93;100.00
11053;BME280;55230;42.602;23.470;2022-12-07T05:47:20;93430.13;;;3.32;100.00
11053;BME280;55230;42.602;23.470;2022-12-07T05:49:47;93356.06;;;2.94;100.00
11053;BME280;55230;42.602;23.470;2022-12-07T05:52:14;93374.97;;;3.03;100.00
11053;BME280;55230;42.602;23.470;2022-12-07T05:54:41;93420.88;;;3.40;100.00
11053;BME280;55230;42.602;23.470;2022-12-07T05:57:08;93409.41;;;3.43;100.00
11053;BME280;55230;42.602;23.470;2022-12-07T05:59:35;93402.13;;;3.47;100.00
11053;BME280;55230;42.602;23.470;2022-12-07T06:02:04;93402.41;;;3.53;100.00
11053;BME280;55230;42.602;23.470;2022-12-07T06:04:33;93400.78;;;3.59;100.00
11053;BME280;55230;42.602;23.470;2022-12-07T06:07:01;93348.09;;;3.20;100.00
11053;BME280;55230;42.602;23.470;2022-12-07T06:09:28;93400.75;;;3.63;100.00
11053;BME280;55230;42.602;23.470;2022-12-07T06:11:55;93429.44;;;3.55;100.00
11053;BME280;55230;42.602;23.470;2022-12-07T06:14:40;93403.91;;;3.54;100.00
11053;BME280;55230;42.602;23.470;2022-12-07T06:17:09;93405.59;;;3.68;100.00
11053;BME280;55230;42.602;23.470;2022-12-07T06:19:36;93405.13;;;3.76;100.00
11053;BME280;55230;42.602;23.470;2022-12-07T06:22:03;93406.06;;;3.63;100.00
11053;BME280;55230;42.602;23.470;2022-12-07T06:24:30;93341.84;;;3.30;100.00
11053;BME280;55230;42.602;23.470;2022-12-07T06:26:58;93409.22;;;3.81;100.00
11053;BME280;55230;42.602;23.470;2022-12-07T06:29:25;93315.78;;;2.92;100.00
11053;BME280;55230;42.602;23.470;2022-12-07T06:31:51;93411.03;;;3.87;100.00
11053;BME280;55230;42.602;23.470;2022-12-07T06:34:21;93429.81;;;4.03;100.00
11053;BME280;55230;42.602;23.470;2022-12-07T06:36:49;93405.28;;;4.12;100.00
11053;BME280;55230;42.602;23.470;2022-12-07T06:39:17;93331.44;;;3.63;100.00
11053;BME280;55230;42.602;23.470;2022-12-07T06:41:44;93346.13;;;3.94;100.00
11053;BME280;55230;42.602;23.470;2022-12-07T06:44:11;93420.38;;;4.61;100.00
11053;BME280;55230;42.602;23.470;2022-12-07T06:46:38;93421.72;;;4.72;100.00
11053;BME280;55230;42.602;23.470;2022-12-07T06:49:06;93437.81;;;4.69;100.00
11053;BME280;55230;42.602;23.470;2022-12-07T06:51:34;93422.59;;;4.86;100.00
11053;BME280;55230;42.602;23.470;2022-12-07T06:54:02;93430.19;;;4.87;100.00
11053;BME280;55230;42.602;23.470;2022-12-07T06:56:29;93342.75;;;4.32;100.00
11053;BME280;55230;42.602;23.470;2022-12-07T06:58:55;93381.38;;;4.67;100.00
11053;BME280;55230;42.602;23.470;2022-12-07T07:01:22;93422.81;;;5.30;100.00
11053;BME280;55230;42.602;23.470;2022-12-07T07:03:49;93426.66;;;5.45;100.00
11053;BME280;55230;42.602;23.470;2022-12-07T07:06:16;93145.50;;;3.67;100.00
11053;BME280;55230;42.602;23.470;2022-12-07T07:08:44;93419.53;;;5.74;100.00
11053;BME280;55230;42.602;23.470;2022-12-07T07:11:12;93318.72;;;5.07;100.00
11053;BME280;55230;42.602;23.470;2022-12-07T07:13:39;93424.41;;;5.96;100.00
11053;BME280;55230;42.602;23.470;2022-12-07T07:16:07;93426.53;;;5.68;100.00
11053;BME280;55230;42.602;23.470;2022-12-07T07:18:34;93346.66;;;4.67;100.00
11053;BME280;55230;42.602;23.470;2022-12-07T07:21:01;93424.41;;;5.28;100.00
11053;BME280;55230;42.602;23.470;2022-12-07T07:23:27;93424.44;;;5.60;100.00
11053;BME280;55230;42.602;23.470;2022-12-07T07:25:56;93432.56;;;5.56;100.00
11053;BME280;55230;42.602;23.470;2022-12-07T07:28:23;93429.69;;;5.31;100.00
11053;BME280;55230;42.602;23.470;2022-12-07T07:30:49;93434.00;;;5.25;100.00
11053;BME280;55230;42.602;23.470;2022-12-07T07:33:16;93433.78;;;5.16;100.00
11053;BME280;55230;42.602;23.470;2022-12-07T07:35:43;93438.81;;;5.14;100.00
11053;BME280;55230;42.602;23.470;2022-12-07T07:38:10;93348.56;;;4.47;100.00
11053;BME280;55230;42.602;23.470;2022-12-07T07:40:36;93437.19;;;4.81;100.00
11053;BME280;55230;42.602;23.470;2022-12-07T07:43:04;93443.97;;;5.05;100.00
11053;BME280;55230;42.602;23.470;2022-12-07T07:45:31;93441.03;;;5.35;100.00
11053;BME280;55230;42.602;23.470;2022-12-07T07:47:58;93444.09;;;5.53;100.00
11053;BME280;55230;42.602;23.470;2022-12-07T07:50:25;93442.59;;;5.68;100.00
11053;BME280;55230;42.602;23.470;2022-12-07T07:52:51;93442.81;;;5.94;100.00
11053;BME280;55230;42.602;23.470;2022-12-07T07:55:18;93438.13;;;6.14;100.00
11053;BME280;55230;42.602;23.470;2022-12-07T07:57:45;92961.25;;;2.93;100.00
11053;BME280;55230;42.602;23.470;2022-12-07T08:00:14;93381.31;;;6.22;100.00
11053;BME280;55230;42.602;23.470;2022-12-07T08:02:42;93432.88;;;6.83;100.00
11053;BME280;55230;42.602;23.470;2022-12-07T08:05:10;93431.88;;;7.06;100.00
11053;BME280;55230;42.602;23.470;2022-12-07T08:07:37;93416.03;;;7.12;100.00
11053;BME280;55230;42.602;23.470;2022-12-07T08:10:05;93438.59;;;7.39;100.00
11053;BME280;55230;42.602;23.470;2022-12-07T08:12:35;93364.22;;;6.04;100.00
11053;BME280;55230;42.602;23.470;2022-12-07T08:15:03;93446.34;;;6.23;100.00
11053;BME280;55230;42.602;23.470;2022-12-07T08:17:32;93214.97;;;4.70;100.00
11053;BME280;55230;42.602;23.470;2022-12-07T08:19:59;93149.75;;;4.19;100.00
11053;BME280;55230;42.602;23.470;2022-12-07T08:22:26;93448.47;;;6.88;100.00
11053;BME280;55230;42.602;23.470;2022-12-07T08:24:53;93448.81;;;7.03;100.00
11053;BME280;55230;42.602;23.470;2022-12-07T08:27:19;93442.66;;;6.61;100.00
11053;BME280;55230;42.602;23.470;2022-12-07T08:29:49;93440.97;;;6.07;100.00
11053;BME280;55230;42.602;23.470;2022-12-07T08:32:15;93432.94;;;5.91;100.00
11053;BME280;55230;42.602;23.470;2022-12-07T08:34:44;93093.94;;;3.57;100.00
11053;BME280;55230;42.602;23.470;2022-12-07T08:37:11;93409.66;;;5.71;100.00
11053;BME280;55230;42.602;23.470;2022-12-07T08:39:37;93432.78;;;6.14;100.00
11053;BME280;55230;42.602;23.470;2022-12-07T08:42:04;93424.81;;;6.26;100.00
11053;BME280;55230;42.602;23.470;2022-12-07T08:44:31;93428.06;;;6.34;100.00
11053;BME280;55230;42.602;23.470;2022-12-07T08:47:01;93434.19;;;6.34;100.00
11053;BME280;55230;42.602;23.470;2022-12-07T08:49:32;93432.72;;;6.46;100.00
11053;BME280;55230;42.602;23.470;2022-12-07T08:52:04;93436.09;;;6.34;100.00
11053;BME280;55230;42.602;23.470;2022-12-07T08:54:33;93435.59;;;6.39;100.00
11053;BME280;55230;42.602;23.470;2022-12-07T08:57:00;93382.94;;;6.04;100.00
11053;BME280;55230;42.602;23.470;2022-12-07T08:59:27;93286.81;;;5.32;100.00
11053;BME280;55230;42.602;23.470;2022-12-07T09:01:55;93427.41;;;6.30;100.00
11053;BME280;55230;42.602;23.470;2022-12-07T09:04:22;93438.63;;;6.69;100.00
11053;BME280;55230;42.602;23.470;2022-12-07T09:06:48;93424.53;;;6.94;100.00
11053;BME280;55230;42.602;23.470;2022-12-07T09:09:16;93412.38;;;6.77;100.00
11053;BME280;55230;42.602;23.470;2022-12-07T09:11:43;93409.56;;;6.68;100.00
11053;BME280;55230;42.602;23.470;2022-12-07T09:14:11;93197.03;;;5.19;100.00
11053;BME280;55230;42.602;23.470;2022-12-07T09:16:38;93406.47;;;6.69;100.00
11053;BME280;55230;42.602;23.470;2022-12-07T09:19:08;93408.38;;;6.97;100.00
11053;BME280;55230;42.602;23.470;2022-12-07T09:21:35;93405.44;;;7.33;100.00
11053;BME280;55230;42.602;23.470;2022-12-07T09:24:01;93408.56;;;7.57;100.00
11053;BME280;55230;42.602;23.470;2022-12-07T09:26:29;93303.50;;;6.83;100.00
11053;BME280;55230;42.602;23.470;2022-12-07T09:28:56;93325.50;;;7.16;100.00
11053;BME280;55230;42.602;23.470;2022-12-07T09:31:23;93345.66;;;7.58;100.00
11053;BME280;55230;42.602;23.470;2022-12-07T09:33:54;93394.41;;;7.81;100.00
11053;BME280;55230;42.602;23.470;2022-12-07T09:36:21;93393.47;;;8.35;100.00
11053;BME280;55230;42.602;23.470;2022-12-07T09:38:48;93395.50;;;8.31;100.00
11053;BME280;55230;42.602;23.470;2022-12-07T09:41:15;93396.59;;;8.20;100.00
11053;BME280;55230;42.602;23.470;2022-12-07T09:43:43;93277.25;;;7.28;100.00
11053;BME280;55230;42.602;23.470;2022-12-07T09:46:13;93246.06;;;6.96;100.00
11053;BME280;55230;42.602;23.470;2022-12-07T09:48:43;93383.34;;;7.54;100.00
11053;BME280;55230;42.602;23.470;2022-12-07T09:51:14;93380.09;;;7.59;100.00
11053;BME280;55230;42.602;23.470;2022-12-07T09:53:42;93373.75;;;7.78;100.00
11053;BME280;55230;42.602;23.470;2022-12-07T09:56:11;93288.28;;;7.05;100.00
11053;BME280;55230;42.602;23.470;2022-12-07T09:58:39;93366.66;;;7.97;100.00
11053;BME280;55230;42.602;23.470;2022-12-07T10:01:11;93367.34;;;7.51;100.00
11053;BME280;55230;42.602;23.470;2022-12-07T10:03:41;93322.25;;;6.95;100.00
11053;BME280;55230;42.602;23.470;2022-12-07T10:06:11;93340.94;;;6.99;100.00
11053;BME280;55230;42.602;23.470;2022-12-07T10:08:39;93389.56;;;7.51;100.00
11053;BME280;55230;42.602;23.470;2022-12-07T10:11:07;93294.09;;;7.16;100.00
11053;BME280;55230;42.602;23.470;2022-12-07T10:13:37;93355.41;;;7.89;100.00
11053;BME280;55230;42.602;23.470;2022-12-07T10:16:05;93359.94;;;7.67;100.00
11053;BME280;55230;42.602;23.470;2022-12-07T10:18:34;93290.19;;;6.92;100.00
11053;BME280;55230;42.602;23.470;2022-12-07T10:21:10;93310.81;;;7.07;100.00
11053;BME280;55230;42.602;23.470;2022-12-07T10:23:39;93352.75;;;7.52;100.00
11053;BME280;55230;42.602;23.470;2022-12-07T10:26:25;93345.78;;;7.54;100.00
11053;BME280;55230;42.602;23.470;2022-12-07T10:28:53;93315.53;;;7.29;100.00
11053;BME280;55230;42.602;23.470;2022-12-07T10:31:21;93167.78;;;6.39;100.00
11053;BME280;55230;42.602;23.470;2022-12-07T10:33:51;93268.69;;;7.80;100.00
11053;BME280;55230;42.602;23.470;2022-12-07T10:36:22;93320.44;;;8.92;100.00
11053;BME280;55230;42.602;23.470;2022-12-07T10:38:51;93320.13;;;9.20;99.21
11053;BME280;55230;42.602;23.470;2022-12-07T10:41:19;93315.19;;;8.97;99.14
11053;BME280;55230;42.602;23.470;2022-12-07T10:43:51;93315.66;;;8.96;99.43
11053;BME280;55230;42.602;23.470;2022-12-07T10:46:54;93318.38;;;8.74;100.00
11053;BME280;55230;42.602;23.470;2022-12-07T10:52:38;93315.00;;;8.40;100.00
11053;BME280;55230;42.602;23.470;2022-12-07T10:55:16;93316.69;;;8.12;100.00
11053;BME280;55230;42.602;23.470;2022-12-07T10:57:56;93269.81;;;7.91;100.00
11053;BME280;55230;42.602;23.470;2022-12-07T11:00:31;93306.69;;;8.47;100.00
11053;BME280;55230;42.602;23.470;2022-12-07T11:03:27;93315.66;;;8.96;100.00
11053;BME280;55230;42.602;23.470;2022-12-07T11:06:02;93314.41;;;9.18;97.66
11053;BME280;55230;42.602;23.470;2022-12-07T11:08:47;93304.19;;;9.35;97.19
11053;BME280;55230;42.602;23.470;2022-12-07T11:11:24;93258.19;;;9.02;95.49
11053;BME280;55230;42.602;23.470;2022-12-07T11:14:00;93300.09;;;9.21;96.38
11053;BME280;55230;42.602;23.470;2022-12-07T11:16:48;93245.28;;;8.67;96.33
11053;BME280;55230;42.602;23.470;2022-12-07T11:19:24;93285.66;;;8.76;97.85
11053;BME280;55230;42.602;23.470;2022-12-07T11:21:57;93280.63;;;8.78;98.87
11053;BME280;55230;42.602;23.470;2022-12-07T11:24:32;93196.34;;;8.19;98.79
11053;BME280;55230;42.602;23.470;2022-12-07T11:27:16;93278.31;;;8.46;100.00
11053;BME280;55230;42.602;23.470;2022-12-07T11:29:55;93275.00;;;8.42;100.00
11053;BME280;55230;42.602;23.470;2022-12-07T11:32:40;93268.81;;;8.32;100.00
11053;BME280;55230;42.602;23.470;2022-12-07T11:35:11;93267.78;;;8.17;100.00
11053;BME280;55230;42.602;23.470;2022-12-07T11:37:42;93010.16;;;6.28;100.00
11053;BME280;55230;42.602;23.470;2022-12-07T11:40:19;93161.41;;;7.55;100.00
11053;BME280;55230;42.602;23.470;2022-12-07T11:42:51;93263.06;;;8.43;100.00
11053;BME280;55230;42.602;23.470;2022-12-07T11:45:21;93209.47;;;8.17;100.00
11053;BME280;55230;42.602;23.470;2022-12-07T11:47:54;92954.16;;;6.89;97.52
11053;BME280;55230;42.602;23.470;2022-12-07T11:50:27;93255.88;;;9.22;96.92
11053;BME280;55230;42.602;23.470;2022-12-07T11:53:00;93249.31;;;9.32;95.71
11053;BME280;55230;42.602;23.470;2022-12-07T11:55:41;93242.72;;;8.85;96.89
11053;BME280;55230;42.602;23.470;2022-12-07T11:58:18;93241.94;;;8.54;98.93
11053;BME280;55230;42.602;23.470;2022-12-07T12:00:48;93223.28;;;8.29;100.00
11053;BME280;55230;42.602;23.470;2022-12-07T12:03:20;93226.09;;;8.25;100.00
11053;BME280;55230;42.602;23.470;2022-12-07T12:05:50;93226.59;;;8.33;100.00
11053;BME280;55230;42.602;23.470;2022-12-07T12:08:21;93171.72;;;7.99;100.00
11053;BME280;55230;42.602;23.470;2022-12-07T12:10:55;93206.59;;;8.12;100.00
11053;BME280;55230;42.602;23.470;2022-12-07T12:13:54;93232.22;;;8.26;100.00
11053;BME280;55230;42.602;23.470;2022-12-07T12:16:42;93138.41;;;7.32;100.00
11053;BME280;55230;42.602;23.470;2022-12-07T12:19:25;93228.31;;;8.27;100.00
11053;BME280;55230;42.602;23.470;2022-12-07T12:21:57;93225.44;;;8.21;100.00
11053;BME280;55230;42.602;23.470;2022-12-07T12:24:29;93216.44;;;8.58;100.00
11053;BME280;55230;42.602;23.470;2022-12-07T12:27:05;93211.09;;;8.98;100.00
11053;BME280;55230;42.602;23.470;2022-12-07T12:29:34;92817.78;;;6.61;98.57
11053;BME280;55230;42.602;23.470;2022-12-07T12:32:12;93207.97;;;9.57;96.25
11053;BME280;55230;42.602;23.470;2022-12-07T12:34:42;93209.47;;;9.67;94.49
11053;BME280;55230;42.602;23.470;2022-12-07T12:37:40;93198.28;;;9.87;94.53
11053;BME280;55230;42.602;23.470;2022-12-07T12:40:40;93175.22;;;9.77;92.62
11053;BME280;55230;42.602;23.470;2022-12-07T12:43:46;93191.66;;;9.79;91.99
11053;BME280;55230;42.602;23.470;2022-12-07T12:49:44;93197.41;;;9.14;96.55
11053;BME280;55230;42.602;23.470;2022-12-07T12:52:52;93198.00;;;9.09;97.63
11053;BME280;55230;42.602;23.470;2022-12-07T12:58:46;93161.06;;;8.61;96.44
11053;BME280;55230;42.602;23.470;2022-12-07T13:01:43;93192.56;;;9.00;96.67
11053;BME280;55230;42.602;23.470;2022-12-07T13:04:20;93206.72;;;9.31;95.96
11053;BME280;55230;42.602;23.470;2022-12-07T13:06:48;93188.50;;;9.53;94.83
11053;BME280;55230;42.602;23.470;2022-12-07T13:09:21;93189.06;;;9.21;93.94
11053;BME280;55230;42.602;23.470;2022-12-07T13:11:50;93194.56;;;9.17;93.54
11053;BME280;55230;42.602;23.470;2022-12-07T13:14:58;93185.72;;;8.99;94.84
11053;BME280;55230;42.602;23.470;2022-12-07T13:17:55;93173.31;;;8.62;97.22